sensor_id;sensor_type;location;lat;lon;timestamp;pressure;altitude;pressure_sealevel;temperature;humidity
43701;BME280;58809;47.984;7.964;2023-05-20T00:01:36;97238.81;;;10.83;94.09
43701;BME280;58809;47.984;7.964;2023-05-20T00:04:37;97240.09;;;10.87;94.00
43701;BME280;58809;47.984;7.964;2023-05-20T00:07:41;97239.09;;;10.88;93.15
43701;BME280;58809;47.984;7.964;2023-05-20T00:10:42;97239.09;;;10.88;93.56
43701;BME280;58809;47.984;7.964;2023-05-20T00:13:44;97240.75;;;10.89;93.64
43701;BME280;58809;47.984;7.964;2023-05-20T00:16:46;97246.88;;;10.90;93.78
43701;BME280;58809;47.984;7.964;2023-05-20T00:19:47;97243.38;;;10.89;94.55
43701;BME280;58809;47.984;7.964;2023-05-20T00:22:49;97242.00;;;10.93;95.36
43701;BME280;58809;47.984;7.964;2023-05-20T00:25:50;97240.75;;;10.89;94.78
43701;BME280;58809;47.984;7.964;2023-05-20T00:28:52;97232.97;;;10.88;94.96
43701;BME280;58809;47.984;7.964;2023-05-20T00:31:54;97238.72;;;10.91;94.91
43701;BME280;58809;47.984;7.964;2023-05-20T00:35:00;97222.03;;;10.91;95.56
43701;BME280;58809;47.984;7.964;2023-05-20T00:38:02;97226.97;;;10.94;94.90
43701;BME280;58809;47.984;7.964;2023-05-20T00:41:03;97226.97;;;10.94;95.45
43701;BME280;58809;47.984;7.964;2023-05-20T00:44:05;97225.78;;;10.96;95.78
43701;BME280;58809;47.984;7.964;2023-05-20T00:47:06;97224.38;;;11.01;96.25
43701;BME280;58809;47.984;7.964;2023-05-20T00:50:09;97220.41;;;11.05;96.51
43701;BME280;58809;47.984;7.964;2023-05-20T00:53:13;97217.94;;;11.03;96.89
43701;BME280;58809;47.984;7.964;2023-05-20T00:56:17;97207.34;;;11.03;97.79
43701;BME280;58809;47.984;7.964;2023-05-20T00:59:19;97204.88;;;11.02;97.57
43701;BME280;58809;47.984;7.964;2023-05-20T01:02:21;97198.47;;;10.96;97.90
43701;BME280;58809;47.984;7.964;2023-05-20T01:05:23;97191.28;;;11.05;98.81
43701;BME280;58809;47.984;7.964;2023-05-20T01:08:25;97203.47;;;11.06;98.48
43701;BME280;58809;47.984;7.964;2023-05-20T01:11:33;97203.13;;;11.09;98.34
43701;BME280;58809;47.984;7.964;2023-05-20T01:14:48;97199.22;;;11.05;98.00
43701;BME280;58809;47.984;7.964;2023-05-20T01:17:55;97200.84;;;11.06;98.15
43701;BME280;58809;47.984;7.964;2023-05-20T01:21:01;97197.56;;;11.04;97.89
43701;BME280;58809;47.984;7.964;2023-05-20T01:24:02;97194.44;;;11.00;98.69
43701;BME280;58809;47.984;7.964;2023-05-20T01:27:11;97191.00;;;11.00;99.03
43701;BME280;58809;47.984;7.964;2023-05-20T01:30:15;97196.34;;;11.06;98.67
43701;BME280;58809;47.984;7.964;2023-05-20T01:33:19;97197.03;;;11.08;99.41
43701;BME280;58809;47.984;7.964;2023-05-20T01:36:21;97187.88;;;11.11;98.83
43701;BME280;58809;47.984;7.964;2023-05-20T01:39:24;97191.91;;;11.07;99.38
43701;BME280;58809;47.984;7.964;2023-05-20T01:42:26;97189.44;;;11.05;99.68
43701;BME280;58809;47.984;7.964;2023-05-20T01:45:29;97180.47;;;11.06;99.54
43701;BME280;58809;47.984;7.964;2023-05-20T01:48:33;97180.91;;;11.10;99.64
43701;BME280;58809;47.984;7.964;2023-05-20T01:51:35;97179.84;;;11.04;99.32
43701;BME280;58809;47.984;7.964;2023-05-20T01:54:37;97177.75;;;11.00;100.00
43701;BME280;58809;47.984;7.964;2023-05-20T01:57:38;97169.53;;;10.94;100.00
43701;BME280;58809;47.984;7.964;2023-05-20T02:00:40;97169.53;;;10.94;100.00
43701;BME280;58809;47.984;7.964;2023-05-20T02:03:42;97175.19;;;10.91;100.00
43701;BME280;58809;47.984;7.964;2023-05-20T02:06:44;97167.88;;;10.93;100.00
43701;BME280;58809;47.984;7.964;2023-05-20T02:09:46;97166.34;;;10.99;100.00
43701;BME280;58809;47.984;7.964;2023-05-20T02:12:48;97164.78;;;11.05;100.00
43701;BME280;58809;47.984;7.964;2023-05-20T02:15:49;97156.00;;;11.04;100.00
43701;BME280;58809;47.984;7.964;2023-05-20T02:18:51;97159.50;;;11.05;100.00
43701;BME280;58809;47.984;7.964;2023-05-20T02:21:53;97167.69;;;11.10;100.00
43701;BME280;58809;47.984;7.964;2023-05-20T02:24:55;97167.88;;;11.08;100.00
43701;BME280;58809;47.984;7.964;2023-05-20T02:27:56;97168.06;;;11.07;100.00
43701;BME280;58809;47.984;7.964;2023-05-20T02:30:58;97166.06;;;11.09;100.00
43701;BME280;58809;47.984;7.964;2023-05-20T02:34:00;97160.22;;;10.98;100.00
43701;BME280;58809;47.984;7.964;2023-05-20T02:37:02;97160.84;;;11.01;100.00
43701;BME280;58809;47.984;7.964;2023-05-20T02:40:04;97167.78;;;11.02;100.00
43701;BME280;58809;47.984;7.964;2023-05-20T02:43:06;97167.16;;;11.00;100.00
43701;BME280;58809;47.984;7.964;2023-05-20T02:46:08;97156.75;;;10.98;100.00
43701;BME280;58809;47.984;7.964;2023-05-20T02:49:10;97161.88;;;11.00;100.00
43701;BME280;58809;47.984;7.964;2023-05-20T02:52:11;97153.66;;;10.94;100.00
43701;BME280;58809;47.984;7.964;2023-05-20T02:55:14;97149.91;;;10.89;100.00
43701;BME280;58809;47.984;7.964;2023-05-20T02:58:15;97153.50;;;10.81;100.00
43701;BME280;58809;47.984;7.964;2023-05-20T03:01:17;97149.94;;;10.74;100.00
43701;BME280;58809;47.984;7.964;2023-05-20T03:04:19;97142.47;;;10.63;100.00
43701;BME280;58809;47.984;7.964;2023-05-20T03:07:22;97147.38;;;10.51;100.00
43701;BME280;58809;47.984;7.964;2023-05-20T03:10:23;97152.94;;;10.41;100.00
43701;BME280;58809;47.984;7.964;2023-05-20T03:13:25;97145.53;;;10.36;100.00
43701;BME280;58809;47.984;7.964;2023-05-20T03:16:26;97143.13;;;10.27;100.00
43701;BME280;58809;47.984;7.964;2023-05-20T03:19:28;97137.47;;;10.15;100.00
43701;BME280;58809;47.984;7.964;2023-05-20T03:22:30;97139.69;;;10.03;100.00
43701;BME280;58809;47.984;7.964;2023-05-20T03:25:32;97126.56;;;9.95;100.00
43701;BME280;58809;47.984;7.964;2023-05-20T03:28:35;97131.38;;;9.91;100.00
43701;BME280;58809;47.984;7.964;2023-05-20T03:31:36;97128.94;;;9.90;100.00
43701;BME280;58809;47.984;7.964;2023-05-20T03:34:38;97127.00;;;9.83;100.00
43701;BME280;58809;47.984;7.964;2023-05-20T03:37:40;97117.75;;;9.79;100.00
43701;BME280;58809;47.984;7.964;2023-05-20T03:40:41;97125.78;;;9.71;100.00
43701;BME280;58809;47.984;7.964;2023-05-20T03:43:43;97116.03;;;9.72;100.00
43701;BME280;58809;47.984;7.964;2023-05-20T03:46:45;97120.50;;;9.71;100.00
43701;BME280;58809;47.984;7.964;2023-05-20T03:49:47;97128.94;;;9.67;100.00
43701;BME280;58809;47.984;7.964;2023-05-20T03:52:48;97131.41;;;9.68;100.00
43701;BME280;58809;47.984;7.964;2023-05-20T03:55:53;97139.97;;;9.70;100.00
43701;BME280;58809;47.984;7.964;2023-05-20T03:58:55;97133.75;;;9.63;100.00
43701;BME280;58809;47.984;7.964;2023-05-20T04:01:56;97129.47;;;9.62;100.00
43701;BME280;58809;47.984;7.964;2023-05-20T04:04:58;97135.22;;;9.66;100.00
43701;BME280;58809;47.984;7.964;2023-05-20T04:08:02;97128.28;;;9.64;100.00
43701;BME280;58809;47.984;7.964;2023-05-20T04:11:05;97129.78;;;9.67;100.00
43701;BME280;58809;47.984;7.964;2023-05-20T04:14:07;97128.41;;;9.71;100.00
43701;BME280;58809;47.984;7.964;2023-05-20T04:17:11;97115.84;;;9.73;100.00
43701;BME280;58809;47.984;7.964;2023-05-20T04:20:12;97119.13;;;9.75;100.00
43701;BME280;58809;47.984;7.964;2023-05-20T04:23:15;97116.81;;;9.72;100.00
43701;BME280;58809;47.984;7.964;2023-05-20T04:26:17;97121.94;;;9.74;100.00
43701;BME280;58809;47.984;7.964;2023-05-20T04:29:18;97115.97;;;9.80;100.00
43701;BME280;58809;47.984;7.964;2023-05-20T04:32:20;97117.78;;;9.94;100.00
43701;BME280;58809;47.984;7.964;2023-05-20T04:35:22;97118.72;;;10.01;100.00
43701;BME280;58809;47.984;7.964;2023-05-20T04:38:28;97130.88;;;10.11;100.00
43701;BME280;58809;47.984;7.964;2023-05-20T04:41:30;97135.63;;;10.15;100.00
43701;BME280;58809;47.984;7.964;2023-05-20T04:44:32;97134.84;;;10.30;100.00
43701;BME280;58809;47.984;7.964;2023-05-20T04:47:34;97135.16;;;10.35;100.00
43701;BME280;58809;47.984;7.964;2023-05-20T04:50:39;97128.22;;;10.34;100.00
43701;BME280;58809;47.984;7.964;2023-05-20T04:53:42;97128.22;;;10.49;100.00
43701;BME280;58809;47.984;7.964;2023-05-20T04:56:46;97130.03;;;10.63;100.00
43701;BME280;58809;47.984;7.964;2023-05-20T04:59:48;97129.94;;;10.71;100.00
43701;BME280;58809;47.984;7.964;2023-05-20T05:02:50;97135.25;;;10.86;100.00
43701;BME280;58809;47.984;7.964;2023-05-20T05:05:56;97132.19;;;10.89;100.00
43701;BME280;58809;47.984;7.964;2023-05-20T05:09:01;97124.16;;;10.97;100.00
43701;BME280;58809;47.984;7.964;2023-05-20T05:12:03;97122.56;;;11.18;100.00
43701;BME280;58809;47.984;7.964;2023-05-20T05:15:06;97119.50;;;11.36;100.00
43701;BME280;58809;47.984;7.964;2023-05-20T05:18:07;97123.94;;;11.50;99.42
43701;BME280;58809;47.984;7.964;2023-05-20T05:21:10;97108.91;;;11.58;98.62
43701;BME280;58809;47.984;7.964;2023-05-20T05:24:11;97111.56;;;11.58;98.48
43701;BME280;58809;47.984;7.964;2023-05-20T05:27:13;97103.28;;;11.67;98.74
43701;BME280;58809;47.984;7.964;2023-05-20T05:30:15;97109.72;;;11.80;98.91
43701;BME280;58809;47.984;7.964;2023-05-20T05:33:17;97106.06;;;11.81;98.36
43701;BME280;58809;47.984;7.964;2023-05-20T05:36:19;97110.22;;;11.90;98.71
43701;BME280;58809;47.984;7.964;2023-05-20T05:39:20;97108.91;;;12.01;97.70
43701;BME280;58809;47.984;7.964;2023-05-20T05:42:22;97105.53;;;12.13;96.93
43701;BME280;58809;47.984;7.964;2023-05-20T05:45:24;97108.22;;;12.20;95.19
43701;BME280;58809;47.984;7.964;2023-05-20T05:48:26;97104.22;;;12.31;94.73
43701;BME280;58809;47.984;7.964;2023-05-20T05:51:27;97098.00;;;12.52;93.66
43701;BME280;58809;47.984;7.964;2023-05-20T05:54:30;97098.13;;;12.72;91.71
43701;BME280;58809;47.984;7.964;2023-05-20T05:57:32;97105.56;;;12.97;89.76
43701;BME280;58809;47.984;7.964;2023-05-20T06:00:35;97092.16;;;13.18;88.24
43701;BME280;58809;47.984;7.964;2023-05-20T06:03:36;97087.34;;;13.42;86.61
43701;BME280;58809;47.984;7.964;2023-05-20T06:06:39;97081.84;;;13.50;84.77
43701;BME280;58809;47.984;7.964;2023-05-20T06:09:41;97076.28;;;13.38;84.44
43701;BME280;58809;47.984;7.964;2023-05-20T06:12:42;97080.50;;;13.26;84.86
43701;BME280;58809;47.984;7.964;2023-05-20T06:15:44;97086.06;;;13.24;85.30
43701;BME280;58809;47.984;7.964;2023-05-20T06:18:46;97089.16;;;13.35;84.97
43701;BME280;58809;47.984;7.964;2023-05-20T06:21:51;97088.78;;;13.64;84.87
43701;BME280;58809;47.984;7.964;2023-05-20T06:24:55;97075.50;;;14.04;83.40
43701;BME280;58809;47.984;7.964;2023-05-20T06:27:57;97077.06;;;14.46;81.16
43701;BME280;58809;47.984;7.964;2023-05-20T06:30:58;97086.66;;;14.67;79.94
43701;BME280;58809;47.984;7.964;2023-05-20T06:34:03;97074.31;;;14.86;78.81
43701;BME280;58809;47.984;7.964;2023-05-20T06:37:05;97066.44;;;15.04;78.01
43701;BME280;58809;47.984;7.964;2023-05-20T06:40:07;97063.31;;;15.14;77.42
43701;BME280;58809;47.984;7.964;2023-05-20T06:43:10;97065.19;;;15.38;76.55
43701;BME280;58809;47.984;7.964;2023-05-20T06:46:26;97072.47;;;15.56;75.64
43701;BME280;58809;47.984;7.964;2023-05-20T06:49:33;97060.56;;;15.59;74.98
43701;BME280;58809;47.984;7.964;2023-05-20T06:52:34;97060.13;;;15.62;74.26
43701;BME280;58809;47.984;7.964;2023-05-20T06:55:36;97064.22;;;15.65;74.66
43701;BME280;58809;47.984;7.964;2023-05-20T06:58:39;97060.72;;;15.64;74.66
43701;BME280;58809;47.984;7.964;2023-05-20T07:01:40;97059.03;;;15.45;74.96
43701;BME280;58809;47.984;7.964;2023-05-20T07:04:42;97060.75;;;15.32;75.41
43701;BME280;58809;47.984;7.964;2023-05-20T07:07:44;97062.53;;;15.38;75.59
43701;BME280;58809;47.984;7.964;2023-05-20T07:10:46;97068.78;;;15.57;74.66
43701;BME280;58809;47.984;7.964;2023-05-20T07:13:51;97062.66;;;15.57;74.89
43701;BME280;58809;47.984;7.964;2023-05-20T07:16:54;97061.00;;;15.56;75.55
43701;BME280;58809;47.984;7.964;2023-05-20T07:19:55;97058.06;;;15.32;77.00
43701;BME280;58809;47.984;7.964;2023-05-20T07:22:57;97054.25;;;15.21;78.50
43701;BME280;58809;47.984;7.964;2023-05-20T07:26:05;97052.56;;;15.27;78.28
43701;BME280;58809;47.984;7.964;2023-05-20T07:29:08;97043.94;;;15.32;78.16
43701;BME280;58809;47.984;7.964;2023-05-20T07:32:12;97039.38;;;15.39;78.00
43701;BME280;58809;47.984;7.964;2023-05-20T07:35:13;97036.19;;;15.55;76.89
43701;BME280;58809;47.984;7.964;2023-05-20T07:38:15;97028.34;;;15.61;76.75
43701;BME280;58809;47.984;7.964;2023-05-20T07:41:19;97015.34;;;15.71;76.22
43701;BME280;58809;47.984;7.964;2023-05-20T07:44:21;97028.53;;;15.91;75.60
43701;BME280;58809;47.984;7.964;2023-05-20T07:47:25;97031.31;;;16.03;75.08
43701;BME280;58809;47.984;7.964;2023-05-20T07:50:27;97023.75;;;16.00;74.42
43701;BME280;58809;47.984;7.964;2023-05-20T07:53:28;97026.41;;;16.00;73.53
43701;BME280;58809;47.984;7.964;2023-05-20T07:56:31;97028.28;;;16.17;72.41
43701;BME280;58809;47.984;7.964;2023-05-20T07:59:34;97025.25;;;16.32;71.74
43701;BME280;58809;47.984;7.964;2023-05-20T08:02:35;97022.06;;;16.61;71.03
43701;BME280;58809;47.984;7.964;2023-05-20T08:05:40;97013.97;;;16.86;71.15
43701;BME280;58809;47.984;7.964;2023-05-20T08:08:42;97016.09;;;16.96;69.63
43701;BME280;58809;47.984;7.964;2023-05-20T08:11:51;97016.19;;;17.19;68.20
43701;BME280;58809;47.984;7.964;2023-05-20T08:14:53;97020.13;;;17.17;67.50
43701;BME280;58809;47.984;7.964;2023-05-20T08:17:55;97013.19;;;16.97;67.61
43701;BME280;58809;47.984;7.964;2023-05-20T08:20:57;97012.91;;;16.87;67.89
43701;BME280;58809;47.984;7.964;2023-05-20T08:24:00;97011.25;;;17.04;67.40
43701;BME280;58809;47.984;7.964;2023-05-20T08:27:02;97016.25;;;17.12;67.16
43701;BME280;58809;47.984;7.964;2023-05-20T08:30:06;97010.34;;;17.10;67.15
43701;BME280;58809;47.984;7.964;2023-05-20T08:33:11;97010.09;;;17.12;66.95
43701;BME280;58809;47.984;7.964;2023-05-20T08:36:13;97014.81;;;17.28;66.59
43701;BME280;58809;47.984;7.964;2023-05-20T08:39:16;97012.13;;;17.28;66.37
43701;BME280;58809;47.984;7.964;2023-05-20T08:42:23;97020.06;;;17.35;66.61
43701;BME280;58809;47.984;7.964;2023-05-20T08:45:29;97023.41;;;17.30;66.09
43701;BME280;58809;47.984;7.964;2023-05-20T08:48:36;97022.16;;;17.33;65.54
43701;BME280;58809;47.984;7.964;2023-05-20T08:51:38;97021.69;;;17.36;65.78
43701;BME280;58809;47.984;7.964;2023-05-20T08:54:45;97019.00;;;17.36;65.43
43701;BME280;58809;47.984;7.964;2023-05-20T08:57:54;97025.78;;;17.39;65.07
43701;BME280;58809;47.984;7.964;2023-05-20T09:00:56;97030.25;;;17.15;65.91
43701;BME280;58809;47.984;7.964;2023-05-20T09:03:59;97026.72;;;17.02;66.25
43701;BME280;58809;47.984;7.964;2023-05-20T09:07:00;97026.38;;;17.10;65.95
43701;BME280;58809;47.984;7.964;2023-05-20T09:10:03;97029.53;;;17.07;66.00
43701;BME280;58809;47.984;7.964;2023-05-20T09:13:06;97027.56;;;17.15;65.76
43701;BME280;58809;47.984;7.964;2023-05-20T09:16:09;97026.22;;;17.24;65.70
43701;BME280;58809;47.984;7.964;2023-05-20T09:19:11;97026.63;;;17.51;65.49
43701;BME280;58809;47.984;7.964;2023-05-20T09:22:13;97027.56;;;17.80;64.36
43701;BME280;58809;47.984;7.964;2023-05-20T09:25:18;97025.53;;;17.94;63.93
43701;BME280;58809;47.984;7.964;2023-05-20T09:28:23;97026.47;;;18.12;62.91
43701;BME280;58809;47.984;7.964;2023-05-20T09:31:30;97016.41;;;18.54;62.32
43701;BME280;58809;47.984;7.964;2023-05-20T09:34:34;97022.97;;;19.16;60.93
43701;BME280;58809;47.984;7.964;2023-05-20T09:37:35;97025.81;;;19.38;60.00
43701;BME280;58809;47.984;7.964;2023-05-20T09:40:38;97016.00;;;19.77;58.84
43701;BME280;58809;47.984;7.964;2023-05-20T09:43:43;97013.19;;;19.72;58.84
43701;BME280;58809;47.984;7.964;2023-05-20T09:46:45;97013.94;;;19.68;58.74
43701;BME280;58809;47.984;7.964;2023-05-20T09:50:13;97014.63;;;19.92;57.67
43701;BME280;58809;47.984;7.964;2023-05-20T09:53:15;97011.81;;;20.21;57.09
43701;BME280;58809;47.984;7.964;2023-05-20T09:56:19;97011.56;;;20.83;55.93
43701;BME280;58809;47.984;7.964;2023-05-20T09:59:22;97007.38;;;21.20;54.97
43701;BME280;58809;47.984;7.964;2023-05-20T10:02:24;97006.28;;;21.21;54.57
43701;BME280;58809;47.984;7.964;2023-05-20T10:05:29;97001.66;;;20.89;55.23
43701;BME280;58809;47.984;7.964;2023-05-20T10:12:38;96996.91;;;20.52;55.78
43701;BME280;58809;47.984;7.964;2023-05-20T10:15:58;96988.94;;;20.79;54.93
43701;BME280;58809;47.984;7.964;2023-05-20T10:19:27;96989.97;;;20.78;54.81
43701;BME280;58809;47.984;7.964;2023-05-20T10:22:32;96996.59;;;20.48;55.17
43701;BME280;58809;47.984;7.964;2023-05-20T10:25:34;97000.56;;;20.46;55.65
43701;BME280;58809;47.984;7.964;2023-05-20T10:28:37;96988.88;;;20.74;55.06
43701;BME280;58809;47.984;7.964;2023-05-20T10:31:44;96990.59;;;20.85;54.84
43701;BME280;58809;47.984;7.964;2023-05-20T10:34:49;96977.66;;;21.09;54.59
43701;BME280;58809;47.984;7.964;2023-05-20T10:37:52;96979.94;;;21.82;53.52
43701;BME280;58809;47.984;7.964;2023-05-20T10:40:54;96982.84;;;22.71;52.18
43701;BME280;58809;47.984;7.964;2023-05-20T10:44:05;96978.91;;;22.99;51.46
43701;BME280;58809;47.984;7.964;2023-05-20T10:47:07;96978.09;;;22.99;50.83
43701;BME280;58809;47.984;7.964;2023-05-20T10:53:40;96981.63;;;22.31;51.35
43701;BME280;58809;47.984;7.964;2023-05-20T10:56:50;96970.97;;;21.71;52.65
43701;BME280;58809;47.984;7.964;2023-05-20T10:59:53;96965.00;;;21.64;52.95
43701;BME280;58809;47.984;7.964;2023-05-20T11:02:55;96970.81;;;22.26;51.84
43701;BME280;58809;47.984;7.964;2023-05-20T11:05:57;96967.63;;;22.39;51.36
43701;BME280;58809;47.984;7.964;2023-05-20T11:09:05;96972.09;;;22.81;50.54
43701;BME280;58809;47.984;7.964;2023-05-20T11:12:07;96969.53;;;23.33;49.80
43701;BME280;58809;47.984;7.964;2023-05-20T11:15:10;96977.63;;;23.74;49.55
43701;BME280;58809;47.984;7.964;2023-05-20T11:18:13;96970.59;;;23.42;49.43
43701;BME280;58809;47.984;7.964;2023-05-20T11:21:18;96965.47;;;23.66;49.03
43701;BME280;58809;47.984;7.964;2023-05-20T11:24:25;96955.22;;;23.42;49.06
43701;BME280;58809;47.984;7.964;2023-05-20T11:27:27;96949.53;;;23.39;49.36
43701;BME280;58809;47.984;7.964;2023-05-20T11:30:29;96945.47;;;23.98;47.95
43701;BME280;58809;47.984;7.964;2023-05-20T11:33:31;96927.47;;;24.43;47.43
43701;BME280;58809;47.984;7.964;2023-05-20T11:36:32;96921.16;;;23.93;47.73
43701;BME280;58809;47.984;7.964;2023-05-20T11:39:34;96935.50;;;23.47;49.41
43701;BME280;58809;47.984;7.964;2023-05-20T11:42:35;96935.22;;;23.38;50.08
43701;BME280;58809;47.984;7.964;2023-05-20T11:45:38;96924.44;;;23.54;49.53
43701;BME280;58809;47.984;7.964;2023-05-20T11:48:50;96922.25;;;23.15;49.26
43701;BME280;58809;47.984;7.964;2023-05-20T11:51:52;96918.25;;;23.43;48.94
43701;BME280;58809;47.984;7.964;2023-05-20T11:54:53;96913.28;;;24.07;48.45
43701;BME280;58809;47.984;7.964;2023-05-20T11:57:55;96913.56;;;24.05;48.49
43701;BME280;58809;47.984;7.964;2023-05-20T12:00:57;96899.56;;;23.67;48.34
43701;BME280;58809;47.984;7.964;2023-05-20T12:04:19;96907.66;;;23.98;47.51
43701;BME280;58809;47.984;7.964;2023-05-20T12:07:21;96900.44;;;23.27;48.00
43701;BME280;58809;47.984;7.964;2023-05-20T12:10:23;96902.25;;;22.95;48.28
43701;BME280;58809;47.984;7.964;2023-05-20T12:13:25;96902.25;;;22.85;48.93
43701;BME280;58809;47.984;7.964;2023-05-20T12:16:27;96907.16;;;23.65;47.50
43701;BME280;58809;47.984;7.964;2023-05-20T12:19:29;96904.19;;;23.41;47.90
43701;BME280;58809;47.984;7.964;2023-05-20T12:22:31;96894.97;;;23.88;47.42
43701;BME280;58809;47.984;7.964;2023-05-20T12:25:32;96883.44;;;24.37;46.22
43701;BME280;58809;47.984;7.964;2023-05-20T12:28:34;96874.66;;;24.66;45.57
43701;BME280;58809;47.984;7.964;2023-05-20T12:31:35;96869.78;;;24.68;45.61
43701;BME280;58809;47.984;7.964;2023-05-20T12:34:37;96871.22;;;24.45;45.91
43701;BME280;58809;47.984;7.964;2023-05-20T12:37:39;96866.53;;;24.06;46.69
43701;BME280;58809;47.984;7.964;2023-05-20T12:40:44;96859.31;;;23.71;47.25
43701;BME280;58809;47.984;7.964;2023-05-20T12:43:45;96869.59;;;23.48;48.08
43701;BME280;58809;47.984;7.964;2023-05-20T12:46:47;96864.19;;;22.97;48.71
43701;BME280;58809;47.984;7.964;2023-05-20T12:49:49;96856.66;;;22.83;49.39
43701;BME280;58809;47.984;7.964;2023-05-20T12:52:50;96856.69;;;23.24;48.79
43701;BME280;58809;47.984;7.964;2023-05-20T12:55:52;96849.09;;;23.42;48.32
43701;BME280;58809;47.984;7.964;2023-05-20T12:58:53;96856.13;;;23.38;48.37
43701;BME280;58809;47.984;7.964;2023-05-20T13:04:57;96853.72;;;23.11;48.69
43701;BME280;58809;47.984;7.964;2023-05-20T13:07:58;96858.56;;;23.39;48.69
43701;BME280;58809;47.984;7.964;2023-05-20T13:11:00;96860.91;;;23.92;47.79
43701;BME280;58809;47.984;7.964;2023-05-20T13:14:01;96857.16;;;23.68;48.37
43701;BME280;58809;47.984;7.964;2023-05-20T13:17:03;96844.28;;;24.25;47.47
43701;BME280;58809;47.984;7.964;2023-05-20T13:20:05;96850.28;;;24.16;47.65
43701;BME280;58809;47.984;7.964;2023-05-20T13:23:07;96844.63;;;24.13;47.95
43701;BME280;58809;47.984;7.964;2023-05-20T13:26:09;96850.31;;;24.01;48.33
43701;BME280;58809;47.984;7.964;2023-05-20T13:29:11;96852.75;;;24.02;48.12
43701;BME280;58809;47.984;7.964;2023-05-20T13:32:13;96843.75;;;24.23;47.63
43701;BME280;58809;47.984;7.964;2023-05-20T13:35:14;96850.13;;;23.92;47.82
43701;BME280;58809;47.984;7.964;2023-05-20T13:38:17;96839.84;;;23.84;47.96
43701;BME280;58809;47.984;7.964;2023-05-20T13:41:19;96839.31;;;23.82;47.69
43701;BME280;58809;47.984;7.964;2023-05-20T13:44:20;96833.59;;;23.94;47.32
43701;BME280;58809;47.984;7.964;2023-05-20T13:47:22;96829.59;;;23.81;48.15
43701;BME280;58809;47.984;7.964;2023-05-20T13:50:24;96839.31;;;23.92;48.12
43701;BME280;58809;47.984;7.964;2023-05-20T13:53:27;96846.84;;;23.90;47.90
43701;BME280;58809;47.984;7.964;2023-05-20T13:56:29;96837.94;;;23.90;47.66
43701;BME280;58809;47.984;7.964;2023-05-20T13:59:30;96836.63;;;23.87;47.97
43701;BME280;58809;47.984;7.964;2023-05-20T14:02:32;96838.25;;;23.73;48.21
43701;BME280;58809;47.984;7.964;2023-05-20T14:05:33;96835.53;;;23.73;48.29
43701;BME280;58809;47.984;7.964;2023-05-20T14:08:35;96832.53;;;23.90;47.80
43701;BME280;58809;47.984;7.964;2023-05-20T14:11:37;96836.53;;;24.08;47.20
43701;BME280;58809;47.984;7.964;2023-05-20T14:14:38;96825.69;;;24.18;46.71
43701;BME280;58809;47.984;7.964;2023-05-20T14:17:40;96817.00;;;24.21;46.77
43701;BME280;58809;47.984;7.964;2023-05-20T14:20:42;96820.19;;;24.28;46.65
43701;BME280;58809;47.984;7.964;2023-05-20T14:23:44;96819.84;;;24.45;46.67
43701;BME280;58809;47.984;7.964;2023-05-20T14:26:45;96822.16;;;24.67;46.13
43701;BME280;58809;47.984;7.964;2023-05-20T14:29:47;96815.84;;;24.82;45.89
43701;BME280;58809;47.984;7.964;2023-05-20T14:32:49;96817.19;;;24.79;46.75
43701;BME280;58809;47.984;7.964;2023-05-20T14:35:51;96818.25;;;24.84;46.97
43701;BME280;58809;47.984;7.964;2023-05-20T14:38:52;96837.78;;;24.81;47.24
43701;BME280;58809;47.984;7.964;2023-05-20T14:41:54;96832.00;;;24.53;47.98
43701;BME280;58809;47.984;7.964;2023-05-20T14:44:55;96833.44;;;24.30;48.49
43701;BME280;58809;47.984;7.964;2023-05-20T14:47:57;96831.47;;;23.91;49.28
43701;BME280;58809;47.984;7.964;2023-05-20T14:50:58;96828.56;;;23.61;49.86
43701;BME280;58809;47.984;7.964;2023-05-20T14:54:00;96830.19;;;23.47;49.89
43701;BME280;58809;47.984;7.964;2023-05-20T14:57:02;96822.94;;;23.37;50.47
43701;BME280;58809;47.984;7.964;2023-05-20T15:00:08;96837.81;;;23.24;50.78
43701;BME280;58809;47.984;7.964;2023-05-20T15:03:10;96835.06;;;22.83;51.05
43701;BME280;58809;47.984;7.964;2023-05-20T15:06:12;96841.81;;;22.76;51.63
43701;BME280;58809;47.984;7.964;2023-05-20T15:09:14;96852.84;;;22.59;51.94
43701;BME280;58809;47.984;7.964;2023-05-20T15:12:15;96849.34;;;22.53;51.90
43701;BME280;58809;47.984;7.964;2023-05-20T15:15:17;96844.75;;;22.54;52.11
43701;BME280;58809;47.984;7.964;2023-05-20T15:18:18;96838.00;;;22.61;52.38
43701;BME280;58809;47.984;7.964;2023-05-20T15:21:20;96838.53;;;22.53;52.75
43701;BME280;58809;47.984;7.964;2023-05-20T15:24:21;96837.19;;;22.51;52.58
43701;BME280;58809;47.984;7.964;2023-05-20T15:27:23;96837.72;;;22.58;52.98
43701;BME280;58809;47.984;7.964;2023-05-20T15:30:25;96836.13;;;22.67;52.57
43701;BME280;58809;47.984;7.964;2023-05-20T15:33:26;96835.28;;;22.51;52.45
43701;BME280;58809;47.984;7.964;2023-05-20T15:36:29;96842.00;;;22.43;52.94
43701;BME280;58809;47.984;7.964;2023-05-20T15:39:31;96843.38;;;22.41;53.12
43701;BME280;58809;47.984;7.964;2023-05-20T15:42:36;96835.78;;;22.33;53.22
43701;BME280;58809;47.984;7.964;2023-05-20T15:45:38;96845.25;;;22.45;53.22
43701;BME280;58809;47.984;7.964;2023-05-20T15:48:40;96846.03;;;22.36;53.02
43701;BME280;58809;47.984;7.964;2023-05-20T15:51:41;96853.56;;;22.28;52.81
43701;BME280;58809;47.984;7.964;2023-05-20T15:54:59;96854.84;;;22.21;53.19
43701;BME280;58809;47.984;7.964;2023-05-20T15:58:01;96852.41;;;22.09;53.44
43701;BME280;58809;47.984;7.964;2023-05-20T16:01:02;96841.28;;;21.95;53.77
43701;BME280;58809;47.984;7.964;2023-05-20T16:04:04;96839.66;;;21.89;54.30
43701;BME280;58809;47.984;7.964;2023-05-20T16:07:06;96833.25;;;22.05;54.07
43701;BME280;58809;47.984;7.964;2023-05-20T16:10:08;96835.47;;;22.19;53.53
43701;BME280;58809;47.984;7.964;2023-05-20T16:13:10;96841.44;;;22.36;53.14
43701;BME280;58809;47.984;7.964;2023-05-20T16:16:11;96833.13;;;22.58;53.03
43701;BME280;58809;47.984;7.964;2023-05-20T16:19:14;96832.91;;;22.96;52.08